sensor_id;sensor_type;location;lat;lon;timestamp;temperature;humidity
54431;DHT22;40342;52.998;5.862;2023-12-29T00:00:26;9.20;99.90
54431;DHT22;40342;52.998;5.862;2023-12-29T00:02:52;9.10;99.90
54431;DHT22;40342;52.998;5.862;2023-12-29T00:05:18;9.10;99.90
54431;DHT22;40342;52.998;5.862;2023-12-29T00:07:43;9.10;99.90
54431;DHT22;40342;52.998;5.862;2023-12-29T00:10:09;9.10;99.90
54431;DHT22;40342;52.998;5.862;2023-12-29T00:12:34;9.10;99.90
54431;DHT22;40342;52.998;5.862;2023-12-29T00:15:00;9.10;99.90
54431;DHT22;40342;52.998;5.862;2023-12-29T00:17:26;9.10;99.90
54431;DHT22;40342;52.998;5.862;2023-12-29T00:19:51;9.10;99.90
54431;DHT22;40342;52.998;5.862;2023-12-29T00:22:19;9.20;99.90
54431;DHT22;40342;52.998;5.862;2023-12-29T00:24:44;9.20;99.90
54431;DHT22;40342;52.998;5.862;2023-12-29T00:27:10;9.20;99.90
54431;DHT22;40342;52.998;5.862;2023-12-29T00:29:36;9.20;99.90
54431;DHT22;40342;52.998;5.862;2023-12-29T00:32:02;9.20;99.90
54431;DHT22;40342;52.998;5.862;2023-12-29T00:34:28;9.10;99.90
54431;DHT22;40342;52.998;5.862;2023-12-29T00:36:53;9.20;99.90
54431;DHT22;40342;52.998;5.862;2023-12-29T00:39:19;9.10;99.90
54431;DHT22;40342;52.998;5.862;2023-12-29T00:41:51;9.20;99.90
54431;DHT22;40342;52.998;5.862;2023-12-29T00:44:17;9.10;99.90
54431;DHT22;40342;52.998;5.862;2023-12-29T00:46:42;9.10;99.90
54431;DHT22;40342;52.998;5.862;2023-12-29T00:49:08;9.10;99.90
54431;DHT22;40342;52.998;5.862;2023-12-29T00:51:39;9.10;99.90
54431;DHT22;40342;52.998;5.862;2023-12-29T00:54:06;9.10;99.90
54431;DHT22;40342;52.998;5.862;2023-12-29T00:56:32;9.00;99.90
54431;DHT22;40342;52.998;5.862;2023-12-29T00:58:58;9.00;99.90
54431;DHT22;40342;52.998;5.862;2023-12-29T01:01:24;9.00;99.90
54431;DHT22;40342;52.998;5.862;2023-12-29T01:03:49;9.00;99.90
54431;DHT22;40342;52.998;5.862;2023-12-29T01:06:15;9.00;99.90
54431;DHT22;40342;52.998;5.862;2023-12-29T01:08:41;9.00;99.90
54431;DHT22;40342;52.998;5.862;2023-12-29T01:11:06;8.90;99.90
54431;DHT22;40342;52.998;5.862;2023-12-29T01:13:32;9.00;99.90
54431;DHT22;40342;52.998;5.862;2023-12-29T01:15:58;9.00;99.90
54431;DHT22;40342;52.998;5.862;2023-12-29T01:18:23;9.00;99.90
54431;DHT22;40342;52.998;5.862;2023-12-29T01:20:49;9.00;99.90
54431;DHT22;40342;52.998;5.862;2023-12-29T01:23:15;9.00;99.90
54431;DHT22;40342;52.998;5.862;2023-12-29T01:25:40;9.00;99.90
54431;DHT22;40342;52.998;5.862;2023-12-29T01:28:06;8.70;99.90
54431;DHT22;40342;52.998;5.862;2023-12-29T01:30:31;8.30;99.90
54431;DHT22;40342;52.998;5.862;2023-12-29T01:32:57;8.00;99.90
54431;DHT22;40342;52.998;5.862;2023-12-29T01:35:23;7.90;99.90
54431;DHT22;40342;52.998;5.862;2023-12-29T01:37:48;7.90;99.90
54431;DHT22;40342;52.998;5.862;2023-12-29T01:40:14;8.10;99.90
54431;DHT22;40342;52.998;5.862;2023-12-29T01:42:40;8.20;99.90
54431;DHT22;40342;52.998;5.862;2023-12-29T01:45:22;8.30;99.90
54431;DHT22;40342;52.998;5.862;2023-12-29T01:47:49;8.00;99.90
54431;DHT22;40342;52.998;5.862;2023-12-29T01:50:18;7.60;99.90
54431;DHT22;40342;52.998;5.862;2023-12-29T01:52:45;7.30;99.90
54431;DHT22;40342;52.998;5.862;2023-12-29T01:55:17;7.20;99.90
54431;DHT22;40342;52.998;5.862;2023-12-29T01:57:43;7.20;99.90
54431;DHT22;40342;52.998;5.862;2023-12-29T02:00:11;7.20;99.90
54431;DHT22;40342;52.998;5.862;2023-12-29T02:02:37;7.20;99.90
54431;DHT22;40342;52.998;5.862;2023-12-29T02:05:03;7.20;99.90
54431;DHT22;40342;52.998;5.862;2023-12-29T02:07:28;7.30;99.90
54431;DHT22;40342;52.998;5.862;2023-12-29T02:09:57;7.30;99.90
54431;DHT22;40342;52.998;5.862;2023-12-29T02:12:23;7.50;99.90
54431;DHT22;40342;52.998;5.862;2023-12-29T02:14:49;7.60;99.90
54431;DHT22;40342;52.998;5.862;2023-12-29T02:19:47;7.70;99.90
54431;DHT22;40342;52.998;5.862;2023-12-29T02:22:15;7.80;99.90
54431;DHT22;40342;52.998;5.862;2023-12-29T02:24:48;8.00;99.90
54431;DHT22;40342;52.998;5.862;2023-12-29T02:30:09;8.50;99.90
54431;DHT22;40342;52.998;5.862;2023-12-29T02:32:44;8.60;99.90
54431;DHT22;40342;52.998;5.862;2023-12-29T02:35:21;8.80;99.90
54431;DHT22;40342;52.998;5.862;2023-12-29T02:37:48;8.80;99.90
54431;DHT22;40342;52.998;5.862;2023-12-29T02:40:14;8.90;99.90
54431;DHT22;40342;52.998;5.862;2023-12-29T02:42:47;8.90;99.90
54431;DHT22;40342;52.998;5.862;2023-12-29T02:45:15;9.00;99.90
54431;DHT22;40342;52.998;5.862;2023-12-29T02:47:41;9.00;99.90
54431;DHT22;40342;52.998;5.862;2023-12-29T02:50:07;9.10;99.90
54431;DHT22;40342;52.998;5.862;2023-12-29T02:52:33;9.10;99.90
54431;DHT22;40342;52.998;5.862;2023-12-29T02:54:59;9.10;99.90
54431;DHT22;40342;52.998;5.862;2023-12-29T02:57:24;9.20;99.90
54431;DHT22;40342;52.998;5.862;2023-12-29T02:59:50;9.30;99.90
54431;DHT22;40342;52.998;5.862;2023-12-29T03:02:15;9.20;99.90
54431;DHT22;40342;52.998;5.862;2023-12-29T03:04:41;9.20;99.90
54431;DHT22;40342;52.998;5.862;2023-12-29T03:07:07;9.20;99.90
54431;DHT22;40342;52.998;5.862;2023-12-29T03:09:33;9.30;99.90
54431;DHT22;40342;52.998;5.862;2023-12-29T03:11:58;9.30;99.90
54431;DHT22;40342;52.998;5.862;2023-12-29T03:14:24;9.30;99.90
54431;DHT22;40342;52.998;5.862;2023-12-29T03:16:49;9.30;99.90
54431;DHT22;40342;52.998;5.862;2023-12-29T03:19:15;9.30;99.90
54431;DHT22;40342;52.998;5.862;2023-12-29T03:21:41;9.30;99.90
54431;DHT22;40342;52.998;5.862;2023-12-29T03:24:06;9.30;99.90
54431;DHT22;40342;52.998;5.862;2023-12-29T03:26:32;9.30;99.90
54431;DHT22;40342;52.998;5.862;2023-12-29T03:28:58;9.20;99.90
54431;DHT22;40342;52.998;5.862;2023-12-29T03:31:23;9.20;99.90
54431;DHT22;40342;52.998;5.862;2023-12-29T03:33:49;9.20;99.90
54431;DHT22;40342;52.998;5.862;2023-12-29T03:36:14;9.20;99.90
54431;DHT22;40342;52.998;5.862;2023-12-29T03:38:40;9.20;99.90
54431;DHT22;40342;52.998;5.862;2023-12-29T03:41:06;9.20;99.90
54431;DHT22;40342;52.998;5.862;2023-12-29T03:43:31;9.20;99.90
54431;DHT22;40342;52.998;5.862;2023-12-29T03:45:57;9.10;99.90
54431;DHT22;40342;52.998;5.862;2023-12-29T03:48:22;9.10;99.90
54431;DHT22;40342;52.998;5.862;2023-12-29T03:50:48;9.10;99.90
54431;DHT22;40342;52.998;5.862;2023-12-29T03:53:13;9.10;99.90
54431;DHT22;40342;52.998;5.862;2023-12-29T03:55:41;9.10;99.90
54431;DHT22;40342;52.998;5.862;2023-12-29T03:58:06;9.10;99.90
54431;DHT22;40342;52.998;5.862;2023-12-29T04:00:32;9.10;99.90
54431;DHT22;40342;52.998;5.862;2023-12-29T04:02:57;9.10;99.90
54431;DHT22;40342;52.998;5.862;2023-12-29T04:05:23;9.10;99.90
54431;DHT22;40342;52.998;5.862;2023-12-29T04:07:49;9.10;99.90
54431;DHT22;40342;52.998;5.862;2023-12-29T04:10:14;9.00;99.90
54431;DHT22;40342;52.998;5.862;2023-12-29T04:12:40;9.00;99.90
54431;DHT22;40342;52.998;5.862;2023-12-29T04:15:06;9.00;99.90
54431;DHT22;40342;52.998;5.862;2023-12-29T04:17:32;9.00;99.90
54431;DHT22;40342;52.998;5.862;2023-12-29T04:19:58;9.00;99.90
54431;DHT22;40342;52.998;5.862;2023-12-29T04:22:23;9.10;99.90
54431;DHT22;40342;52.998;5.862;2023-12-29T04:24:49;9.00;99.90
54431;DHT22;40342;52.998;5.862;2023-12-29T04:27:15;9.00;99.90
54431;DHT22;40342;52.998;5.862;2023-12-29T04:29:41;9.00;99.90
54431;DHT22;40342;52.998;5.862;2023-12-29T04:32:06;9.00;99.90
54431;DHT22;40342;52.998;5.862;2023-12-29T04:34:32;9.00;99.90
54431;DHT22;40342;52.998;5.862;2023-12-29T04:36:58;9.00;99.90
54431;DHT22;40342;52.998;5.862;2023-12-29T04:39:24;9.00;99.90
54431;DHT22;40342;52.998;5.862;2023-12-29T04:41:50;9.00;99.90
54431;DHT22;40342;52.998;5.862;2023-12-29T04:44:15;9.00;99.90
54431;DHT22;40342;52.998;5.862;2023-12-29T04:46:41;9.10;99.90
54431;DHT22;40342;52.998;5.862;2023-12-29T04:49:07;9.00;99.90
54431;DHT22;40342;52.998;5.862;2023-12-29T04:51:34;9.10;99.90
54431;DHT22;40342;52.998;5.862;2023-12-29T04:53:59;9.10;99.90
54431;DHT22;40342;52.998;5.862;2023-12-29T04:56:25;9.10;99.90
54431;DHT22;40342;52.998;5.862;2023-12-29T04:58:53;9.10;99.90
54431;DHT22;40342;52.998;5.862;2023-12-29T05:01:19;9.10;99.90
54431;DHT22;40342;52.998;5.862;2023-12-29T05:03:44;9.00;99.90
54431;DHT22;40342;52.998;5.862;2023-12-29T05:06:10;9.00;99.90
54431;DHT22;40342;52.998;5.862;2023-12-29T05:08:36;9.00;99.90
54431;DHT22;40342;52.998;5.862;2023-12-29T05:11:01;9.00;99.90
54431;DHT22;40342;52.998;5.862;2023-12-29T05:13:27;9.00;99.90
54431;DHT22;40342;52.998;5.862;2023-12-29T05:15:52;9.00;99.90
54431;DHT22;40342;52.998;5.862;2023-12-29T05:18:18;9.00;99.90
54431;DHT22;40342;52.998;5.862;2023-12-29T05:20:44;8.90;99.90
54431;DHT22;40342;52.998;5.862;2023-12-29T05:23:09;8.90;99.90
54431;DHT22;40342;52.998;5.862;2023-12-29T05:25:35;8.90;99.90
54431;DHT22;40342;52.998;5.862;2023-12-29T05:28:01;9.00;99.90
54431;DHT22;40342;52.998;5.862;2023-12-29T05:30:26;9.00;99.90
54431;DHT22;40342;52.998;5.862;2023-12-29T05:32:53;9.00;99.90
54431;DHT22;40342;52.998;5.862;2023-12-29T05:35:18;9.00;99.90
54431;DHT22;40342;52.998;5.862;2023-12-29T05:37:44;9.00;99.90
54431;DHT22;40342;52.998;5.862;2023-12-29T05:40:10;9.10;99.90
54431;DHT22;40342;52.998;5.862;2023-12-29T05:42:36;9.10;99.90
54431;DHT22;40342;52.998;5.862;2023-12-29T05:45:02;9.10;99.90
54431;DHT22;40342;52.998;5.862;2023-12-29T05:47:28;9.10;99.90
54431;DHT22;40342;52.998;5.862;2023-12-29T05:49:53;9.20;99.90
54431;DHT22;40342;52.998;5.862;2023-12-29T05:52:19;9.20;99.90
54431;DHT22;40342;52.998;5.862;2023-12-29T05:54:44;9.20;99.90
54431;DHT22;40342;52.998;5.862;2023-12-29T05:57:10;9.30;99.90
54431;DHT22;40342;52.998;5.862;2023-12-29T05:59:36;9.20;99.90
54431;DHT22;40342;52.998;5.862;2023-12-29T06:02:01;9.30;99.90
54431;DHT22;40342;52.998;5.862;2023-12-29T06:04:28;9.30;99.90
54431;DHT22;40342;52.998;5.862;2023-12-29T06:06:53;9.20;99.90
54431;DHT22;40342;52.998;5.862;2023-12-29T06:09:19;9.20;99.90
54431;DHT22;40342;52.998;5.862;2023-12-29T06:11:45;9.20;99.90
54431;DHT22;40342;52.998;5.862;2023-12-29T06:14:10;9.20;99.90
54431;DHT22;40342;52.998;5.862;2023-12-29T06:16:36;9.20;99.90
54431;DHT22;40342;52.998;5.862;2023-12-29T06:19:02;9.20;99.90
54431;DHT22;40342;52.998;5.862;2023-12-29T06:21:27;9.10;99.90
54431;DHT22;40342;52.998;5.862;2023-12-29T06:23:53;9.10;99.90
54431;DHT22;40342;52.998;5.862;2023-12-29T06:26:20;9.10;99.90
54431;DHT22;40342;52.998;5.862;2023-12-29T06:28:47;9.20;99.90
54431;DHT22;40342;52.998;5.862;2023-12-29T06:31:13;9.10;99.90
54431;DHT22;40342;52.998;5.862;2023-12-29T06:33:42;9.10;99.90
54431;DHT22;40342;52.998;5.862;2023-12-29T06:36:08;9.10;99.90
54431;DHT22;40342;52.998;5.862;2023-12-29T06:38:34;9.10;99.90
54431;DHT22;40342;52.998;5.862;2023-12-29T06:41:03;9.10;99.90
54431;DHT22;40342;52.998;5.862;2023-12-29T06:43:29;9.10;99.90
54431;DHT22;40342;52.998;5.862;2023-12-29T06:45:55;9.20;99.90
54431;DHT22;40342;52.998;5.862;2023-12-29T06:48:21;9.20;99.90
54431;DHT22;40342;52.998;5.862;2023-12-29T06:50:46;9.20;99.90
54431;DHT22;40342;52.998;5.862;2023-12-29T06:53:12;9.20;99.90
54431;DHT22;40342;52.998;5.862;2023-12-29T06:55:38;9.20;99.90
54431;DHT22;40342;52.998;5.862;2023-12-29T06:58:07;9.20;99.90
54431;DHT22;40342;52.998;5.862;2023-12-29T07:00:33;9.20;99.90
54431;DHT22;40342;52.998;5.862;2023-12-29T07:03:00;9.30;99.90
54431;DHT22;40342;52.998;5.862;2023-12-29T07:05:26;9.30;99.90
54431;DHT22;40342;52.998;5.862;2023-12-29T07:07:52;9.30;99.90
54431;DHT22;40342;52.998;5.862;2023-12-29T07:10:17;9.30;99.90
54431;DHT22;40342;52.998;5.862;2023-12-29T07:12:43;9.30;99.90
54431;DHT22;40342;52.998;5.862;2023-12-29T07:15:09;9.20;99.90
54431;DHT22;40342;52.998;5.862;2023-12-29T07:17:35;9.20;99.90
54431;DHT22;40342;52.998;5.862;2023-12-29T07:20:01;9.20;99.90
54431;DHT22;40342;52.998;5.862;2023-12-29T07:22:26;9.30;99.90
54431;DHT22;40342;52.998;5.862;2023-12-29T07:24:53;9.20;99.90
54431;DHT22;40342;52.998;5.862;2023-12-29T07:27:18;9.20;99.90
54431;DHT22;40342;52.998;5.862;2023-12-29T07:29:44;9.20;99.90
54431;DHT22;40342;52.998;5.862;2023-12-29T07:32:10;9.20;99.90
54431;DHT22;40342;52.998;5.862;2023-12-29T07:34:35;9.20;99.90
54431;DHT22;40342;52.998;5.862;2023-12-29T07:37:01;9.30;99.90
54431;DHT22;40342;52.998;5.862;2023-12-29T07:39:26;9.30;99.90
54431;DHT22;40342;52.998;5.862;2023-12-29T07:41:52;9.20;99.90
54431;DHT22;40342;52.998;5.862;2023-12-29T07:44:19;9.30;99.90
54431;DHT22;40342;52.998;5.862;2023-12-29T07:46:45;9.30;99.90
54431;DHT22;40342;52.998;5.862;2023-12-29T07:49:11;9.30;99.90
54431;DHT22;40342;52.998;5.862;2023-12-29T07:51:41;9.30;99.90
54431;DHT22;40342;52.998;5.862;2023-12-29T07:54:08;9.30;99.90
54431;DHT22;40342;52.998;5.862;2023-12-29T07:56:33;9.40;99.90
54431;DHT22;40342;52.998;5.862;2023-12-29T07:58:59;9.30;99.90
54431;DHT22;40342;52.998;5.862;2023-12-29T08:01:25;9.30;99.90
54431;DHT22;40342;52.998;5.862;2023-12-29T08:03:52;9.30;99.90
54431;DHT22;40342;52.998;5.862;2023-12-29T08:06:18;9.20;99.90
54431;DHT22;40342;52.998;5.862;2023-12-29T08:08:43;9.30;99.90
54431;DHT22;40342;52.998;5.862;2023-12-29T08:11:13;9.20;99.90
54431;DHT22;40342;52.998;5.862;2023-12-29T08:13:40;9.20;99.90
54431;DHT22;40342;52.998;5.862;2023-12-29T08:16:06;9.20;99.90
54431;DHT22;40342;52.998;5.862;2023-12-29T08:18:33;9.20;99.90
54431;DHT22;40342;52.998;5.862;2023-12-29T08:20:58;9.20;99.90
54431;DHT22;40342;52.998;5.862;2023-12-29T08:23:25;9.20;99.90
54431;DHT22;40342;52.998;5.862;2023-12-29T08:25:52;9.10;99.90
54431;DHT22;40342;52.998;5.862;2023-12-29T08:28:18;9.10;99.90
54431;DHT22;40342;52.998;5.862;2023-12-29T08:30:43;9.10;99.90
54431;DHT22;40342;52.998;5.862;2023-12-29T08:33:11;9.10;99.90
54431;DHT22;40342;52.998;5.862;2023-12-29T08:35:40;9.10;99.90
54431;DHT22;40342;52.998;5.862;2023-12-29T08:38:06;9.10;99.90
54431;DHT22;40342;52.998;5.862;2023-12-29T08:40:32;9.20;99.90
54431;DHT22;40342;52.998;5.862;2023-12-29T08:42:57;9.20;99.90
54431;DHT22;40342;52.998;5.862;2023-12-29T08:45:23;9.20;99.90
54431;DHT22;40342;52.998;5.862;2023-12-29T08:47:48;9.10;99.90
54431;DHT22;40342;52.998;5.862;2023-12-29T08:50:14;9.20;99.90
54431;DHT22;40342;52.998;5.862;2023-12-29T08:52:41;9.20;99.90
54431;DHT22;40342;52.998;5.862;2023-12-29T08:55:06;9.20;99.90
54431;DHT22;40342;52.998;5.862;2023-12-29T08:57:33;9.20;99.90
54431;DHT22;40342;52.998;5.862;2023-12-29T08:59:59;9.30;99.90
54431;DHT22;40342;52.998;5.862;2023-12-29T09:02:25;9.30;99.90
54431;DHT22;40342;52.998;5.862;2023-12-29T09:04:50;9.30;99.90
54431;DHT22;40342;52.998;5.862;2023-12-29T09:07:16;9.30;99.90
54431;DHT22;40342;52.998;5.862;2023-12-29T09:09:42;9.30;99.90
54431;DHT22;40342;52.998;5.862;2023-12-29T09:12:07;9.30;99.90
54431;DHT22;40342;52.998;5.862;2023-12-29T09:14:33;9.30;99.90
54431;DHT22;40342;52.998;5.862;2023-12-29T09:17:00;9.40;99.90
54431;DHT22;40342;52.998;5.862;2023-12-29T09:19:26;9.40;99.90
54431;DHT22;40342;52.998;5.862;2023-12-29T09:21:51;9.40;99.90
54431;DHT22;40342;52.998;5.862;2023-12-29T09:24:17;9.40;99.90
54431;DHT22;40342;52.998;5.862;2023-12-29T09:26:43;9.40;99.90
54431;DHT22;40342;52.998;5.862;2023-12-29T09:29:09;9.40;99.90
54431;DHT22;40342;52.998;5.862;2023-12-29T09:31:35;9.40;99.90
54431;DHT22;40342;52.998;5.862;2023-12-29T09:34:01;9.40;99.90
54431;DHT22;40342;52.998;5.862;2023-12-29T09:36:27;9.40;99.90
54431;DHT22;40342;52.998;5.862;2023-12-29T09:38:53;9.40;99.90
54431;DHT22;40342;52.998;5.862;2023-12-29T09:41:20;9.40;99.90
54431;DHT22;40342;52.998;5.862;2023-12-29T09:43:48;9.40;99.90
54431;DHT22;40342;52.998;5.862;2023-12-29T09:46:17;9.40;99.90
54431;DHT22;40342;52.998;5.862;2023-12-29T09:48:46;9.40;99.90
54431;DHT22;40342;52.998;5.862;2023-12-29T09:51:13;9.40;99.90
54431;DHT22;40342;52.998;5.862;2023-12-29T09:53:39;9.40;99.90
54431;DHT22;40342;52.998;5.862;2023-12-29T09:56:08;9.40;99.90
54431;DHT22;40342;52.998;5.862;2023-12-29T09:58:35;9.40;99.90
54431;DHT22;40342;52.998;5.862;2023-12-29T10:01:06;9.40;99.90
54431;DHT22;40342;52.998;5.862;2023-12-29T10:03:32;9.30;99.90
54431;DHT22;40342;52.998;5.862;2023-12-29T10:06:00;9.30;99.90
54431;DHT22;40342;52.998;5.862;2023-12-29T10:08:29;9.30;99.90
54431;DHT22;40342;52.998;5.862;2023-12-29T10:11:00;9.30;99.90
54431;DHT22;40342;52.998;5.862;2023-12-29T10:13:26;9.30;99.90
54431;DHT22;40342;52.998;5.862;2023-12-29T10:16:18;9.30;99.90
54431;DHT22;40342;52.998;5.862;2023-12-29T10:19:26;9.30;99.90
54431;DHT22;40342;52.998;5.862;2023-12-29T10:24:19;9.20;99.90
54431;DHT22;40342;52.998;5.862;2023-12-29T10:26:46;9.20;99.90
54431;DHT22;40342;52.998;5.862;2023-12-29T10:29:12;9.20;99.90
54431;DHT22;40342;52.998;5.862;2023-12-29T10:31:38;9.20;99.90
54431;DHT22;40342;52.998;5.862;2023-12-29T10:34:23;9.10;99.90
54431;DHT22;40342;52.998;5.862;2023-12-29T10:37:02;9.10;99.90
54431;DHT22;40342;52.998;5.862;2023-12-29T10:39:55;9.10;99.90
54431;DHT22;40342;52.998;5.862;2023-12-29T10:42:21;9.10;99.90
54431;DHT22;40342;52.998;5.862;2023-12-29T10:44:46;9.10;99.90
54431;DHT22;40342;52.998;5.862;2023-12-29T10:47:13;9.20;99.90
54431;DHT22;40342;52.998;5.862;2023-12-29T10:49:40;9.30;99.90
54431;DHT22;40342;52.998;5.862;2023-12-29T10:52:16;9.30;99.90
54431;DHT22;40342;52.998;5.862;2023-12-29T10:54:42;9.40;99.90
54431;DHT22;40342;52.998;5.862;2023-12-29T10:57:10;9.40;99.90
54431;DHT22;40342;52.998;5.862;2023-12-29T10:59:36;9.40;99.90
54431;DHT22;40342;52.998;5.862;2023-12-29T11:02:02;9.50;99.90
54431;DHT22;40342;52.998;5.862;2023-12-29T11:04:29;9.40;99.90
54431;DHT22;40342;52.998;5.862;2023-12-29T11:06:55;9.40;99.90
54431;DHT22;40342;52.998;5.862;2023-12-29T11:09:32;9.40;99.90
54431;DHT22;40342;52.998;5.862;2023-12-29T11:12:02;9.40;99.90
54431;DHT22;40342;52.998;5.862;2023-12-29T11:14:28;9.30;99.90
54431;DHT22;40342;52.998;5.862;2023-12-29T11:16:55;9.30;99.90
54431;DHT22;40342;52.998;5.862;2023-12-29T11:19:21;9.20;99.90
54431;DHT22;40342;52.998;5.862;2023-12-29T11:21:49;9.20;99.90
54431;DHT22;40342;52.998;5.862;2023-12-29T11:24:18;9.20;99.90
54431;DHT22;40342;52.998;5.862;2023-12-29T11:26:44;9.20;99.90
54431;DHT22;40342;52.998;5.862;2023-12-29T11:29:11;9.20;99.90
54431;DHT22;40342;52.998;5.862;2023-12-29T11:31:38;9.20;99.90
54431;DHT22;40342;52.998;5.862;2023-12-29T11:34:10;9.10;99.90
54431;DHT22;40342;52.998;5.862;2023-12-29T11:36:41;9.10;99.90
54431;DHT22;40342;52.998;5.862;2023-12-29T11:42:06;8.90;99.90
54431;DHT22;40342;52.998;5.862;2023-12-29T11:44:32;8.80;99.90
54431;DHT22;40342;52.998;5.862;2023-12-29T11:46:59;8.70;99.90
54431;DHT22;40342;52.998;5.862;2023-12-29T11:49:25;8.60;99.90
54431;DHT22;40342;52.998;5.862;2023-12-29T11:51:51;8.50;99.90
54431;DHT22;40342;52.998;5.862;2023-12-29T11:54:25;8.50;99.90
54431;DHT22;40342;52.998;5.862;2023-12-29T11:56:52;8.40;99.90
54431;DHT22;40342;52.998;5.862;2023-12-29T11:59:19;8.40;99.90
54431;DHT22;40342;52.998;5.862;2023-12-29T12:01:58;8.30;99.90
54431;DHT22;40342;52.998;5.862;2023-12-29T12:04:39;8.30;99.90
54431;DHT22;40342;52.998;5.862;2023-12-29T12:12:56;8.30;99.90
54431;DHT22;40342;52.998;5.862;2023-12-29T12:17:59;8.30;99.90
54431;DHT22;40342;52.998;5.862;2023-12-29T12:20:25;8.10;99.90
54431;DHT22;40342;52.998;5.862;2023-12-29T12:23:03;8.20;99.90
54431;DHT22;40342;52.998;5.862;2023-12-29T12:25:31;8.20;99.90
54431;DHT22;40342;52.998;5.862;2023-12-29T12:28:01;8.20;99.90
54431;DHT22;40342;52.998;5.862;2023-12-29T12:30:29;8.20;99.90
54431;DHT22;40342;52.998;5.862;2023-12-29T12:32:58;8.20;99.90
54431;DHT22;40342;52.998;5.862;2023-12-29T12:35:24;8.20;99.90
54431;DHT22;40342;52.998;5.862;2023-12-29T12:38:16;8.20;99.90
54431;DHT22;40342;52.998;5.862;2023-12-29T12:40:48;8.30;99.90
54431;DHT22;40342;52.998;5.862;2023-12-29T12:43:14;8.20;99.90
54431;DHT22;40342;52.998;5.862;2023-12-29T12:45:42;8.30;99.90
54431;DHT22;40342;52.998;5.862;2023-12-29T12:48:41;8.30;99.90
54431;DHT22;40342;52.998;5.862;2023-12-29T12:51:09;8.30;99.90
54431;DHT22;40342;52.998;5.862;2023-12-29T12:53:42;8.40;99.90
54431;DHT22;40342;52.998;5.862;2023-12-29T12:56:09;8.40;99.90
54431;DHT22;40342;52.998;5.862;2023-12-29T12:58:36;8.40;99.90
54431;DHT22;40342;52.998;5.862;2023-12-29T13:01:01;8.50;99.90
54431;DHT22;40342;52.998;5.862;2023-12-29T13:03:28;8.50;99.90
54431;DHT22;40342;52.998;5.862;2023-12-29T13:05:56;8.50;99.90
54431;DHT22;40342;52.998;5.862;2023-12-29T13:08:23;8.50;99.90
54431;DHT22;40342;52.998;5.862;2023-12-29T13:10:50;8.50;99.90
54431;DHT22;40342;52.998;5.862;2023-12-29T13:13:16;8.60;99.90
54431;DHT22;40342;52.998;5.862;2023-12-29T13:15:51;8.50;99.90
54431;DHT22;40342;52.998;5.862;2023-12-29T13:18:17;8.50;99.90
54431;DHT22;40342;52.998;5.862;2023-12-29T13:20:44;8.50;99.90
54431;DHT22;40342;52.998;5.862;2023-12-29T13:23:10;8.50;99.90
54431;DHT22;40342;52.998;5.862;2023-12-29T13:25:36;8.50;99.90
54431;DHT22;40342;52.998;5.862;2023-12-29T13:28:05;8.50;99.90
54431;DHT22;40342;52.998;5.862;2023-12-29T13:30:31;8.50;99.90
54431;DHT22;40342;52.998;5.862;2023-12-29T13:32:58;8.50;99.90
54431;DHT22;40342;52.998;5.862;2023-12-29T13:35:40;8.50;99.90
54431;DHT22;40342;52.998;5.862;2023-12-29T13:38:24;8.40;99.90
54431;DHT22;40342;52.998;5.862;2023-12-29T13:40:58;8.40;99.90
54431;DHT22;40342;52.998;5.862;2023-12-29T13:43:25;8.40;99.90
54431;DHT22;40342;52.998;5.862;2023-12-29T13:45:54;8.30;99.90
54431;DHT22;40342;52.998;5.862;2023-12-29T13:48:20;8.40;99.90
54431;DHT22;40342;52.998;5.862;2023-12-29T13:50:48;8.40;99.90
54431;DHT22;40342;52.998;5.862;2023-12-29T13:53:20;8.40;99.90
54431;DHT22;40342;52.998;5.862;2023-12-29T13:55:47;8.40;99.90
54431;DHT22;40342;52.998;5.862;2023-12-29T13:58:13;8.50;99.90
54431;DHT22;40342;52.998;5.862;2023-12-29T14:00:43;8.30;99.90
54431;DHT22;40342;52.998;5.862;2023-12-29T14:03:30;8.30;99.90
54431;DHT22;40342;52.998;5.862;2023-12-29T14:06:04;8.40;99.90
54431;DHT22;40342;52.998;5.862;2023-12-29T14:08:33;8.40;99.90
54431;DHT22;40342;52.998;5.862;2023-12-29T14:11:10;8.30;99.90
54431;DHT22;40342;52.998;5.862;2023-12-29T14:13:40;8.30;99.90
54431;DHT22;40342;52.998;5.862;2023-12-29T14:16:06;8.30;99.90
54431;DHT22;40342;52.998;5.862;2023-12-29T14:21:32;8.30;99.90
54431;DHT22;40342;52.998;5.862;2023-12-29T14:24:12;8.20;99.90
54431;DHT22;40342;52.998;5.862;2023-12-29T14:26:39;8.20;99.90
54431;DHT22;40342;52.998;5.862;2023-12-29T14:29:08;8.20;99.90
54431;DHT22;40342;52.998;5.862;2023-12-29T14:31:38;8.20;99.90
54431;DHT22;40342;52.998;5.862;2023-12-29T14:34:08;8.10;99.90
54431;DHT22;40342;52.998;5.862;2023-12-29T14:36:34;8.20;99.90
54431;DHT22;40342;52.998;5.862;2023-12-29T14:39:01;8.20;99.90
54431;DHT22;40342;52.998;5.862;2023-12-29T14:41:27;8.20;99.90
54431;DHT22;40342;52.998;5.862;2023-12-29T14:43:53;8.20;99.90
54431;DHT22;40342;52.998;5.862;2023-12-29T14:46:19;8.20;99.90
54431;DHT22;40342;52.998;5.862;2023-12-29T14:48:45;8.20;99.90
54431;DHT22;40342;52.998;5.862;2023-12-29T14:51:10;8.20;99.90
54431;DHT22;40342;52.998;5.862;2023-12-29T14:53:37;8.20;99.90
54431;DHT22;40342;52.998;5.862;2023-12-29T14:56:03;8.20;99.90
54431;DHT22;40342;52.998;5.862;2023-12-29T14:58:29;8.20;99.90
54431;DHT22;40342;52.998;5.862;2023-12-29T15:00:55;8.10;99.90
54431;DHT22;40342;52.998;5.862;2023-12-29T15:03:21;8.20;99.90
54431;DHT22;40342;52.998;5.862;2023-12-29T15:05:48;8.20;99.90
54431;DHT22;40342;52.998;5.862;2023-12-29T15:08:13;8.20;99.90
54431;DHT22;40342;52.998;5.862;2023-12-29T15:10:39;8.20;99.90
54431;DHT22;40342;52.998;5.862;2023-12-29T15:13:05;8.20;99.90
54431;DHT22;40342;52.998;5.862;2023-12-29T15:15:33;8.10;99.90
54431;DHT22;40342;52.998;5.862;2023-12-29T15:17:59;8.20;99.90
54431;DHT22;40342;52.998;5.862;2023-12-29T15:20:25;8.20;99.90
54431;DHT22;40342;52.998;5.862;2023-12-29T15:22:50;8.20;99.90
54431;DHT22;40342;52.998;5.862;2023-12-29T15:25:17;8.20;99.90
54431;DHT22;40342;52.998;5.862;2023-12-29T15:27:44;8.20;99.90
54431;DHT22;40342;52.998;5.862;2023-12-29T15:30:10;8.10;99.90
54431;DHT22;40342;52.998;5.862;2023-12-29T15:32:37;8.10;99.90
54431;DHT22;40342;52.998;5.862;2023-12-29T15:35:02;8.10;99.90
54431;DHT22;40342;52.998;5.862;2023-12-29T15:37:29;8.10;99.90
54431;DHT22;40342;52.998;5.862;2023-12-29T15:39:54;8.10;99.90
54431;DHT22;40342;52.998;5.862;2023-12-29T15:42:20;8.10;99.90
54431;DHT22;40342;52.998;5.862;2023-12-29T15:44:45;8.10;99.90
54431;DHT22;40342;52.998;5.862;2023-12-29T15:47:11;8.20;99.90
54431;DHT22;40342;52.998;5.862;2023-12-29T15:49:37;8.20;99.90
54431;DHT22;40342;52.998;5.862;2023-12-29T15:52:03;8.20;99.90
54431;DHT22;40342;52.998;5.862;2023-12-29T15:54:29;8.20;99.90
54431;DHT22;40342;52.998;5.862;2023-12-29T15:56:55;8.20;99.90
54431;DHT22;40342;52.998;5.862;2023-12-29T15:59:20;8.20;99.90
54431;DHT22;40342;52.998;5.862;2023-12-29T16:01:46;8.20;99.90
54431;DHT22;40342;52.998;5.862;2023-12-29T16:04:11;8.20;99.90
54431;DHT22;40342;52.998;5.862;2023-12-29T16:06:37;8.20;99.90